Time;durP1;ratioP1;P1;durP2;ratioP2;P2;SDS_P1;SDS_P2;PMS_P1;PMS_P2;Temp;Humidity;BMP_temperature;BMP_pressure;BME280_temperature;BME280_humidity;BME280_pressure;Samples;Min_cycle;Max_cycle;Signal;HPM_P1;HPM_P2
2021/01/16 00:00:35;;;;;;;11.45;5.28;;;25.70;49.50;;;;;;5075511;28;20107;-55
2021/01/16 00:03:07;;;;;;;15.93;6.15;;;25.80;49.50;;;;;;5075167;28;20388;-55
2021/01/16 00:05:34;;;;;;;11.27;6.05;;;25.90;49.50;;;;;;5075256;28;20603;-55
2021/01/16 00:08:00;;;;;;;10.57;5.40;;;25.90;49.30;;;;;;5075187;28;20154;-55
2021/01/16 00:10:27;;;;;;;9.00;5.13;;;26.00;49.40;;;;;;5075031;28;20043;-55
2021/01/16 00:12:54;;;;;;;12.75;5.68;;;26.10;49.20;;;;;;5075017;28;20078;-55
2021/01/16 00:15:21;;;;;;;12.70;6.18;;;26.20;49.10;;;;;;5075601;28;20110;-54
2021/01/16 00:18:04;;;;;;;12.75;5.85;;;26.30;49.10;;;;;;5074841;28;20036;-55
2021/01/16 00:20:32;;;;;;;13.95;6.10;;;26.40;48.90;;;;;;5075121;28;20056;-55
2021/01/16 00:22:59;;;;;;;10.98;6.13;;;26.40;48.80;;;;;;5074872;28;20108;-54
2021/01/16 00:25:26;;;;;;;12.77;6.10;;;26.50;48.60;;;;;;5075064;28;20027;-55
2021/01/16 00:27:53;;;;;;;12.05;5.97;;;26.60;48.50;;;;;;5074756;28;20040;-55
2021/01/16 00:30:23;;;;;;;11.45;5.93;;;26.70;48.40;;;;;;5075289;28;20368;-55
2021/01/16 00:32:50;;;;;;;11.13;5.57;;;26.70;48.30;;;;;;5075774;28;20146;-55
2021/01/16 00:35:18;;;;;;;11.80;6.05;;;26.80;48.10;;;;;;5074845;28;20411;-55
2021/01/16 00:37:47;;;;;;;13.52;5.93;;;26.80;48.00;;;;;;5074576;28;20031;-55
2021/01/16 00:40:20;;;;;;;10.75;6.13;;;26.90;48.00;;;;;;5054576;28;20461;-54
2021/01/16 00:42:54;;;;;;;10.57;5.70;;;26.90;47.80;;;;;;5054805;28;20384;-55
2021/01/16 00:45:22;;;;;;;12.02;5.82;;;26.90;47.70;;;;;;5054735;28;20021;-54
2021/01/16 00:47:50;;;;;;;11.93;6.13;;;27.00;48.40;;;;;;5069058;28;20039;-55
2021/01/16 00:50:20;;;;;;;12.02;5.97;;;27.00;47.70;;;;;;5075125;28;20052;-55
2021/01/16 00:52:57;;;;;;;12.65;6.20;;;27.00;47.60;;;;;;5074331;28;20032;-55
2021/01/16 00:55:24;;;;;;;11.43;5.70;;;26.90;47.50;;;;;;5074095;28;20035;-55
2021/01/16 00:57:52;;;;;;;10.20;5.90;;;27.00;47.50;;;;;;5074460;28;20020;-55
2021/01/16 01:00:21;;;;;;;14.50;5.60;;;26.90;47.40;;;;;;5073561;28;20028;-55
2021/01/16 01:02:47;;;;;;;18.58;6.55;;;26.90;47.40;;;;;;5074607;28;20064;-54
2021/01/16 01:05:20;;;;;;;14.35;5.63;;;26.90;47.40;;;;;;5074315;28;20032;-54
2021/01/16 01:07:51;;;;;;;12.05;5.82;;;26.90;47.40;;;;;;5074147;28;20025;-54
2021/01/16 01:10:32;;;;;;;11.55;6.10;;;26.90;47.40;;;;;;5074058;28;20024;-54
2021/01/16 01:12:59;;;;;;;10.13;5.88;;;26.80;47.30;;;;;;5074017;28;20044;-54
2021/01/16 01:15:25;;;;;;;10.23;5.53;;;26.80;47.50;;;;;;5073851;28;20387;-54
2021/01/16 01:17:58;;;;;;;12.68;5.88;;;26.80;47.50;;;;;;5074072;28;20043;-54
2021/01/16 01:20:25;;;;;;;16.85;6.57;;;26.70;47.60;;;;;;5073873;28;20123;-54
2021/01/16 01:22:52;;;;;;;16.15;6.07;;;26.70;48.00;;;;;;5068045;28;20069;-54
2021/01/16 01:25:19;;;;;;;15.52;5.97;;;26.70;48.30;;;;;;5073626;28;20035;-54
2021/01/16 01:27:53;;;;;;;19.27;6.60;;;26.70;48.50;;;;;;5074061;28;20044;-54
2021/01/16 01:30:22;;;;;;;16.70;5.88;;;26.60;48.50;;;;;;5073126;28;20467;-54
2021/01/16 01:32:49;;;;;;;18.23;5.85;;;26.60;48.70;;;;;;5073490;28;20028;-55
2021/01/16 01:35:17;;;;;;;14.57;6.80;;;26.60;48.80;;;;;;5073791;28;20032;-54
2021/01/16 01:37:46;;;;;;;17.80;5.88;;;26.60;48.80;;;;;;5073510;28;20025;-54
2021/01/16 01:40:14;;;;;;;15.02;6.00;;;26.60;48.80;;;;;;5073703;28;20456;-54
2021/01/16 01:42:41;;;;;;;14.13;5.32;;;26.60;48.80;;;;;;5074065;28;20025;-55
2021/01/16 01:45:10;;;;;;;16.73;6.18;;;26.60;48.80;;;;;;5073574;28;20124;-54
2021/01/16 01:47:39;;;;;;;16.92;5.80;;;26.60;48.90;;;;;;5073824;28;20134;-54
2021/01/16 01:50:08;;;;;;;30.67;12.35;;;26.60;48.70;;;;;;5073328;28;20479;-54
2021/01/16 01:52:35;;;;;;;14.40;6.13;;;26.60;48.80;;;;;;5073224;28;20024;-54
2021/01/16 01:55:06;;;;;;;14.60;6.47;;;26.60;48.70;;;;;;5073708;28;20031;-54
2021/01/16 01:57:43;;;;;;;15.15;7.05;;;26.70;48.70;;;;;;5073521;28;20480;-54
2021/01/16 02:00:12;;;;;;;17.65;6.63;;;26.70;48.70;;;;;;5073946;28;20514;-54
2021/01/16 02:02:43;;;;;;;12.88;5.53;;;26.70;48.60;;;;;;5073647;28;20357;-55
2021/01/16 02:05:11;;;;;;;16.52;6.30;;;26.70;48.50;;;;;;5073432;28;20033;-54
2021/01/16 02:07:38;;;;;;;16.75;5.90;;;26.70;48.50;;;;;;5073324;28;20533;-54
2021/01/16 02:10:23;;;;;;;16.77;6.13;;;26.80;48.50;;;;;;5071955;28;20033;-54
2021/01/16 02:12:57;;;;;;;14.25;6.45;;;26.80;48.50;;;;;;5077602;28;20031;-54
2021/01/16 02:16:03;;;;;;;12.90;5.53;;;26.80;48.60;;;;;;5077108;28;20028;-54
2021/01/16 02:18:36;;;;;;;17.48;5.68;;;26.80;48.70;;;;;;5057574;28;20029;-55
2021/01/16 02:21:05;;;;;;;12.43;5.63;;;26.80;48.60;;;;;;5068630;28;20127;-54
2021/01/16 02:23:32;;;;;;;10.88;5.28;;;26.80;49.40;;;;;;5077714;28;20024;-54
2021/01/16 02:26:17;;;;;;;10.20;5.75;;;26.80;48.70;;;;;;5076487;28;20081;-54
2021/01/16 02:28:52;;;;;;;10.05;5.05;;;26.90;48.70;;;;;;5076777;28;20468;-54
2021/01/16 02:31:19;;;;;;;11.00;5.07;;;26.90;48.60;;;;;;5077724;28;20032;-54
2021/01/16 02:33:47;;;;;;;11.57;5.25;;;27.00;48.60;;;;;;5076370;28;20072;-54
2021/01/16 02:36:18;;;;;;;12.75;4.82;;;27.00;49.20;;;;;;5075633;28;20039;-55
2021/01/16 02:38:51;;;;;;;11.07;5.22;;;27.10;48.50;;;;;;5077102;28;20078;-55
2021/01/16 02:41:26;;;;;;;10.88;5.38;;;27.10;48.40;;;;;;5076297;28;20043;-54
2021/01/16 02:44:20;;;;;;;10.50;5.00;;;27.20;48.30;;;;;;5077163;28;20468;-54
2021/01/16 02:46:50;;;;;;;9.70;4.68;;;27.30;48.20;;;;;;5076314;28;20082;-55
2021/01/16 02:49:41;;;;;;;17.52;4.97;;;27.30;48.20;;;;;;5076352;28;20143;-54
2021/01/16 02:52:13;;;;;;;9.60;4.70;;;27.40;48.00;;;;;;5076827;28;20039;-55
2021/01/16 02:54:41;;;;;;;11.45;4.38;;;27.50;47.90;;;;;;5076749;28;20021;-54
2021/01/16 02:57:10;;;;;;;10.52;4.68;;;27.60;47.90;;;;;;5075702;28;20029;-54
2021/01/16 02:59:47;;;;;;;12.18;4.32;;;27.60;47.70;;;;;;5074653;28;20365;-54
2021/01/16 03:02:18;;;;;;;11.63;4.78;;;27.60;47.60;;;;;;5076801;28;20031;-54
2021/01/16 03:04:45;;;;;;;9.00;4.78;;;27.70;47.60;;;;;;5077294;28;20032;-54
2021/01/16 03:07:13;;;;;;;9.30;4.40;;;27.80;47.50;;;;;;5076918;28;20028;-54
2021/01/16 03:09:41;;;;;;;12.07;4.53;;;27.80;47.40;;;;;;5076216;28;20376;-54
2021/01/16 03:12:11;;;;;;;7.28;4.30;;;27.80;47.30;;;;;;5076462;28;20063;-54
2021/01/16 03:14:50;;;;;;;9.32;4.40;;;27.90;47.30;;;;;;5076193;28;20424;-54
2021/01/16 03:17:17;;;;;;;13.27;4.80;;;27.90;47.20;;;;;;5076703;28;20028;-54
2021/01/16 03:19:47;;;;;;;7.07;4.05;;;27.90;47.10;;;;;;5071052;28;20467;-54
2021/01/16 03:22:20;;;;;;;8.32;4.28;;;27.90;47.10;;;;;;5075783;28;20034;-54
2021/01/16 03:24:55;;;;;;;9.73;3.92;;;27.90;47.00;;;;;;5076307;28;20021;-54
2021/01/16 03:27:22;;;;;;;7.25;3.95;;;27.90;47.00;;;;;;5076299;28;20082;-54
2021/01/16 03:29:49;;;;;;;6.25;4.20;;;28.00;47.10;;;;;;5075802;28;20028;-54
2021/01/16 03:32:17;;;;;;;8.52;4.10;;;27.90;46.90;;;;;;5076440;28;20024;-55
2021/01/16 03:34:46;;;;;;;10.20;4.47;;;27.90;46.90;;;;;;5076180;28;20021;-54
2021/01/16 03:37:14;;;;;;;10.18;4.20;;;27.90;46.90;;;;;;5075639;28;20107;-54
2021/01/16 03:39:41;;;;;;;9.73;4.22;;;27.90;46.90;;;;;;5074448;28;20499;-55
2021/01/16 03:42:09;;;;;;;7.43;3.83;;;27.90;46.90;;;;;;5074219;28;20055;-53
2021/01/16 03:44:36;;;;;;;8.25;3.83;;;27.90;47.00;;;;;;5075372;28;20384;-55
2021/01/16 03:47:04;;;;;;;6.95;4.05;;;27.80;46.90;;;;;;5075184;28;20025;-54
2021/01/16 03:49:30;;;;;;;9.63;4.30;;;27.80;46.90;;;;;;5075195;28;20044;-55
2021/01/16 03:51:57;;;;;;;5.10;3.10;;;27.80;47.00;;;;;;5075787;28;20123;-55
2021/01/16 03:54:24;;;;;;;8.43;3.78;;;27.70;47.00;;;;;;5075011;28;20210;-55
2021/01/16 03:56:50;;;;;;;6.18;3.22;;;27.70;47.00;;;;;;5075955;28;20119;-55
2021/01/16 03:59:17;;;;;;;6.65;3.50;;;27.60;47.00;;;;;;5074861;28;20518;-54
2021/01/16 04:01:45;;;;;;;6.78;3.90;;;27.60;47.10;;;;;;5075626;28;20036;-55
2021/01/16 04:04:12;;;;;;;6.22;3.42;;;27.60;47.10;;;;;;5076044;28;20372;-55
2021/01/16 04:06:38;;;;;;;6.38;3.92;;;27.50;47.10;;;;;;5075449;28;20519;-54
2021/01/16 04:09:05;;;;;;;7.00;3.35;;;27.50;47.20;;;;;;5074168;28;20028;-54
2021/01/16 04:11:32;;;;;;;7.65;3.50;;;27.40;47.30;;;;;;5073865;28;20029;-53
2021/01/16 04:13:58;;;;;;;10.18;3.90;;;27.30;47.30;;;;;;5074979;28;20455;-54
2021/01/16 04:16:28;;;;;;;8.85;3.85;;;27.30;47.30;;;;;;5073400;28;20035;-54
2021/01/16 04:18:55;;;;;;;13.43;3.72;;;27.20;47.20;;;;;;5073765;28;20032;-55
2021/01/16 04:21:23;;;;;;;13.68;3.90;;;27.10;47.20;;;;;;5075681;28;20449;-54
2021/01/16 04:23:50;;;;;;;16.73;4.20;;;27.10;47.30;;;;;;5075184;28;20472;-54
2021/01/16 04:26:16;;;;;;;8.57;4.00;;;27.00;47.30;;;;;;5075050;28;20473;-54
2021/01/16 04:28:43;;;;;;;17.67;3.95;;;26.90;47.40;;;;;;5074686;28;20492;-54
2021/01/16 04:31:10;;;;;;;5.75;3.72;;;26.80;47.50;;;;;;5074939;28;20357;-54
2021/01/16 04:33:37;;;;;;;6.18;3.42;;;26.70;47.50;;;;;;5074045;28;20472;-54
2021/01/16 04:36:04;;;;;;;7.22;3.67;;;26.70;47.70;;;;;;5074905;28;20021;-54
2021/01/16 04:38:30;;;;;;;10.20;4.20;;;26.60;47.80;;;;;;5074877;28;20468;-55
2021/01/16 04:40:57;;;;;;;5.80;3.75;;;26.50;47.90;;;;;;5074823;28;20033;-54
2021/01/16 04:43:25;;;;;;;10.48;4.10;;;26.40;48.00;;;;;;5074793;28;20096;-54
2021/01/16 04:45:57;;;;;;;7.20;4.20;;;26.30;48.10;;;;;;5074916;28;20460;-53
2021/01/16 04:48:25;;;;;;;6.15;4.28;;;26.30;48.30;;;;;;5074796;28;20028;-54
2021/01/16 04:50:56;;;;;;;9.48;4.43;;;26.20;48.30;;;;;;5074721;28;20055;-54
2021/01/16 04:53:27;;;;;;;8.13;3.90;;;26.10;48.40;;;;;;5074608;28;20051;-54
2021/01/16 04:55:54;;;;;;;8.80;4.20;;;26.00;48.60;;;;;;5074492;28;20070;-54
2021/01/16 04:58:21;;;;;;;8.02;4.70;;;25.90;48.70;;;;;;5074513;28;20020;-54
2021/01/16 05:00:51;;;;;;;6.93;3.83;;;25.90;48.80;;;;;;5074652;28;20364;-54
2021/01/16 05:03:21;;;;;;;8.15;3.97;;;25.80;48.90;;;;;;5074429;28;20017;-53
2021/01/16 05:05:50;;;;;;;7.72;3.72;;;25.70;49.00;;;;;;5074611;28;20036;-54
2021/01/16 05:08:19;;;;;;;7.78;4.18;;;25.70;49.10;;;;;;5074002;28;20020;-54
2021/01/16 05:10:51;;;;;;;9.07;3.80;;;25.60;49.20;;;;;;5074090;28;20031;-54
2021/01/16 05:13:20;;;;;;;7.72;3.63;;;25.60;49.30;;;;;;5074299;28;20016;-54
2021/01/16 05:15:47;;;;;;;8.43;3.40;;;25.50;49.40;;;;;;5074355;28;20016;-54
2021/01/16 05:18:16;;;;;;;7.90;3.85;;;25.40;49.40;;;;;;5074240;28;20029;-54
2021/01/16 05:20:44;;;;;;;11.45;3.38;;;25.40;49.50;;;;;;5073630;28;20024;-53
2021/01/16 05:23:12;;;;;;;12.02;3.40;;;25.30;49.50;;;;;;5073907;28;20021;-54
2021/01/16 05:25:58;;;;;;;7.13;3.50;;;25.30;49.80;;;;;;5072724;28;20423;-54
2021/01/16 05:28:26;;;;;;;9.02;3.70;;;25.20;49.70;;;;;;5074043;28;20028;-55
2021/01/16 05:31:04;;;;;;;5.53;3.35;;;25.20;49.80;;;;;;5073642;28;20036;-54
2021/01/16 05:33:32;;;;;;;7.57;3.10;;;25.10;49.80;;;;;;5074514;28;20028;-54
2021/01/16 05:36:01;;;;;;;10.00;3.72;;;25.10;49.90;;;;;;5074015;28;20483;-54
2021/01/16 05:38:41;;;;;;;5.30;3.10;;;25.10;50.00;;;;;;5073830;28;20051;-54
2021/01/16 05:41:13;;;;;;;6.72;3.22;;;25.00;50.00;;;;;;5073543;28;20426;-54
2021/01/16 05:43:42;;;;;;;6.18;3.10;;;24.90;50.10;;;;;;5073634;28;20488;-53
2021/01/16 05:46:14;;;;;;;7.15;3.60;;;24.90;50.10;;;;;;5073683;28;20043;-54
2021/01/16 05:48:42;;;;;;;9.40;3.80;;;24.80;50.30;;;;;;5073439;28;20131;-54
2021/01/16 05:51:08;;;;;;;6.85;3.28;;;24.80;50.30;;;;;;5073607;28;20074;-54
2021/01/16 05:53:36;;;;;;;5.97;3.28;;;24.80;50.30;;;;;;5073792;28;20059;-54
2021/01/16 05:56:03;;;;;;;7.05;3.03;;;24.70;50.40;;;;;;5073644;28;20375;-54
2021/01/16 05:58:34;;;;;;;5.35;3.10;;;24.70;50.50;;;;;;5073931;28;20097;-53
2021/01/16 06:01:05;;;;;;;9.65;3.42;;;24.60;50.50;;;;;;5073723;28;20035;-53
2021/01/16 06:03:35;;;;;;;7.88;3.13;;;24.60;50.60;;;;;;5073622;28;20066;-54
2021/01/16 06:06:02;;;;;;;7.72;3.40;;;24.50;50.70;;;;;;5072138;28;20051;-54
2021/01/16 06:08:30;;;;;;;10.10;3.20;;;24.50;50.80;;;;;;5073205;28;20100;-52
2021/01/16 06:10:57;;;;;;;6.32;3.25;;;24.40;50.80;;;;;;5073914;28;20075;-53
2021/01/16 06:13:25;;;;;;;6.43;3.13;;;24.40;50.90;;;;;;5073598;28;20029;-54
2021/01/16 06:15:54;;;;;;;7.25;2.88;;;24.30;51.00;;;;;;5072760;28;20078;-53
2021/01/16 06:18:35;;;;;;;11.85;3.00;;;24.30;51.10;;;;;;5069724;28;20449;-54
2021/01/16 06:21:03;;;;;;;6.05;2.78;;;24.20;51.10;;;;;;5053989;28;20119;-53
2021/01/16 06:23:32;;;;;;;5.82;2.67;;;24.10;51.20;;;;;;5068661;28;20037;-54
2021/01/16 06:26:06;;;;;;;5.50;2.75;;;24.10;51.20;;;;;;5073453;28;20020;-54
2021/01/16 06:29:00;;;;;;;8.95;2.92;;;24.00;51.30;;;;;;5073077;28;20074;-54
2021/01/16 06:31:34;;;;;;;8.70;3.00;;;24.00;51.40;;;;;;5072787;28;20044;-55
2021/01/16 06:34:06;;;;;;;10.70;3.10;;;23.90;51.40;;;;;;5073103;28;20035;-54
2021/01/16 06:36:35;;;;;;;6.72;2.60;;;23.90;51.50;;;;;;5073567;28;20025;-54
2021/01/16 06:39:06;;;;;;;7.93;3.00;;;23.90;51.70;;;;;;5072389;28;20028;-53
2021/01/16 06:41:34;;;;;;;6.32;3.28;;;23.80;51.70;;;;;;5071321;28;20025;-54
2021/01/16 06:44:01;;;;;;;4.30;2.60;;;23.80;51.80;;;;;;5073840;28;20078;-54
2021/01/16 06:46:58;;;;;;;7.85;2.45;;;23.70;51.90;;;;;;5072710;28;20376;-53
2021/01/16 06:49:30;;;;;;;5.95;3.08;;;23.70;51.90;;;;;;5068567;28;20060;-54
2021/01/16 06:52:07;;;;;;;5.70;2.42;;;23.60;52.00;;;;;;5072358;28;20037;-53
2021/01/16 06:54:34;;;;;;;7.15;2.83;;;23.60;52.10;;;;;;5073146;28;20066;-52
2021/01/16 06:57:08;;;;;;;5.65;2.33;;;23.50;52.10;;;;;;5074017;28;20514;-54
2021/01/16 06:59:39;;;;;;;6.63;2.70;;;23.50;52.20;;;;;;5076361;28;20033;-54
2021/01/16 07:02:24;;;;;;;;;;;23.50;52.30;;;;;;5077037;28;20119;-53
2021/01/16 07:04:58;;;;;;;5.30;2.72;;;23.40;52.30;;;;;;5074584;28;19912;-52
2021/01/16 07:07:36;;;;;;;9.90;2.65;;;23.40;52.50;;;;;;5071078;28;20052;-54
2021/01/16 18:41:01;;;;;;;16.55;2.78;;;15.10;69.10;;;;;;4968911;28;20427;-54
2021/01/16 18:43:30;;;;;;;9.38;2.40;;;14.80;68.00;;;;;;4969270;28;20466;-55
2021/01/16 18:45:56;;;;;;;13.00;2.20;;;14.80;68.60;;;;;;4969275;28;20050;-55
2021/01/16 18:48:23;;;;;;;20.60;2.65;;;14.90;69.00;;;;;;4969231;28;20031;-55
2021/01/16 18:50:51;;;;;;;15.25;2.78;;;14.90;69.00;;;;;;4969154;28;20518;-54
2021/01/16 18:53:19;;;;;;;20.13;2.85;;;15.00;69.10;;;;;;4968855;28;20500;-55
2021/01/16 18:55:53;;;;;;;16.95;2.55;;;15.10;69.00;;;;;;4969285;28;20076;-54
2021/01/16 18:58:20;;;;;;;16.10;2.45;;;15.20;68.90;;;;;;4969663;28;20026;-55
2021/01/16 19:00:47;;;;;;;15.35;3.22;;;15.20;68.70;;;;;;4969017;28;20031;-54
2021/01/16 19:03:15;;;;;;;9.18;2.20;;;15.30;68.50;;;;;;4968944;28;20034;-54
2021/01/16 19:05:43;;;;;;;15.02;2.63;;;15.40;68.30;;;;;;4968557;28;20394;-54
2021/01/16 19:08:10;;;;;;;12.80;2.22;;;15.40;68.10;;;;;;4968900;28;20027;-54
2021/01/16 19:10:37;;;;;;;14.23;2.72;;;15.50;67.90;;;;;;4968791;28;20066;-54
2021/01/16 19:13:05;;;;;;;16.48;3.05;;;15.50;67.70;;;;;;4967567;28;20027;-54
2021/01/16 19:15:32;;;;;;;10.38;2.72;;;15.60;67.50;;;;;;4968792;28;20030;-55
2021/01/16 19:18:00;;;;;;;13.13;2.95;;;15.60;67.30;;;;;;4968737;28;20031;-54
2021/01/16 19:20:27;;;;;;;15.95;3.08;;;15.70;67.10;;;;;;4968505;28;20038;-55
2021/01/16 19:22:55;;;;;;;14.43;2.83;;;15.80;67.60;;;;;;4968670;28;20031;-54
2021/01/16 19:25:26;;;;;;;18.25;2.85;;;15.80;66.80;;;;;;4968495;28;20027;-54
2021/01/16 19:27:53;;;;;;;11.32;2.95;;;15.90;66.60;;;;;;4968576;28;20019;-55
2021/01/16 19:30:21;;;;;;;15.15;2.90;;;15.90;66.50;;;;;;4968200;28;20459;-54
2021/01/16 19:32:48;;;;;;;14.27;2.63;;;16.00;66.30;;;;;;4968409;28;20124;-54
2021/01/16 19:35:16;;;;;;;12.70;2.60;;;16.00;66.20;;;;;;4968141;28;20463;-55
2021/01/16 19:37:43;;;;;;;10.25;3.08;;;16.00;66.00;;;;;;4968169;28;20038;-55
2021/01/16 19:40:12;;;;;;;11.98;2.65;;;16.00;65.80;;;;;;4968405;28;20094;-54
2021/01/16 19:42:41;;;;;;;14.70;2.90;;;16.10;65.70;;;;;;4968825;28;20035;-55
2021/01/16 19:45:08;;;;;;;6.22;2.50;;;16.10;65.60;;;;;;4968360;28;20474;-55
2021/01/16 19:47:35;;;;;;;9.80;2.75;;;16.10;65.40;;;;;;4968853;28;20029;-55
2021/01/16 19:50:01;;;;;;;7.68;2.50;;;16.20;65.40;;;;;;4968270;28;20029;-54
2021/01/16 19:52:28;;;;;;;8.70;2.67;;;16.20;65.30;;;;;;4954922;28;20467;-55
2021/01/16 19:54:54;;;;;;;10.02;2.80;;;16.20;65.10;;;;;;4955197;29;20430;-54
2021/01/16 19:57:21;;;;;;;11.80;2.70;;;16.20;65.10;;;;;;4954272;28;20039;-54
2021/01/16 19:59:47;;;;;;;10.40;2.80;;;16.30;65.00;;;;;;4954910;29;20067;-54
2021/01/16 20:02:14;;;;;;;13.25;3.60;;;16.30;64.80;;;;;;4955154;29;20076;-55
2021/01/16 20:04:41;;;;;;;10.30;3.22;;;16.30;64.70;;;;;;4955199;28;20080;-54
2021/01/16 20:07:07;;;;;;;9.13;2.60;;;16.30;64.60;;;;;;4955159;28;20030;-55
2021/01/16 20:09:34;;;;;;;9.27;2.58;;;16.30;64.50;;;;;;4955416;29;20463;-54
2021/01/16 20:12:00;;;;;;;11.52;2.42;;;16.40;64.50;;;;;;4955115;28;20106;-55
2021/01/16 20:14:27;;;;;;;10.15;2.58;;;16.40;64.40;;;;;;4954795;29;20383;-55
2021/01/16 20:16:53;;;;;;;9.10;2.83;;;16.40;64.30;;;;;;4954773;28;20038;-54
2021/01/16 20:19:20;;;;;;;9.93;3.33;;;16.40;64.30;;;;;;4954922;29;20039;-55
2021/01/16 20:21:48;;;;;;;7.70;2.97;;;16.40;64.20;;;;;;4954964;28;20106;-55
2021/01/16 20:24:18;;;;;;;8.68;2.70;;;16.40;64.20;;;;;;4954774;28;20059;-55
2021/01/16 20:26:54;;;;;;;7.40;2.83;;;16.50;64.20;;;;;;4955123;29;20463;-55
2021/01/16 20:29:22;;;;;;;8.75;3.00;;;16.50;64.10;;;;;;4955101;28;20378;-55
2021/01/16 20:31:59;;;;;;;11.38;3.20;;;16.50;64.10;;;;;;4954832;29;20089;-54
2021/01/16 20:34:26;;;;;;;7.43;3.20;;;16.50;64.00;;;;;;4955063;28;20508;-55
2021/01/16 20:36:54;;;;;;;9.82;3.13;;;16.50;64.00;;;;;;4954554;28;20027;-55
2021/01/16 20:39:21;;;;;;;10.02;3.17;;;16.50;63.90;;;;;;4985704;28;20055;-55
2021/01/16 20:41:48;;;;;;;8.65;3.17;;;16.50;63.90;;;;;;4954701;29;20089;-55
2021/01/16 20:44:15;;;;;;;8.25;2.90;;;16.60;63.90;;;;;;4954626;28;20032;-55
2021/01/16 20:46:42;;;;;;;10.50;2.95;;;16.60;63.90;;;;;;4954321;29;20544;-55
2021/01/16 20:49:09;;;;;;;10.65;3.10;;;16.60;63.80;;;;;;4954303;29;20102;-55
2021/01/16 20:51:36;;;;;;;10.48;3.35;;;16.60;63.80;;;;;;4954519;28;20027;-55
2021/01/16 20:54:06;;;;;;;10.50;3.30;;;16.60;63.70;;;;;;4954464;28;20024;-55
2021/01/16 20:56:33;;;;;;;7.13;2.92;;;16.60;63.70;;;;;;4954517;28;20119;-55
2021/01/16 20:59:02;;;;;;;6.18;2.97;;;16.60;63.70;;;;;;4954509;29;20035;-54
2021/01/16 21:01:28;;;;;;;8.45;3.53;;;16.70;63.70;;;;;;4954391;28;20023;-55
2021/01/16 21:03:55;;;;;;;9.60;3.55;;;16.60;63.60;;;;;;4953276;28;20058;-55
2021/01/16 21:06:21;;;;;;;9.35;3.38;;;16.70;63.60;;;;;;4954671;28;20078;-54
2021/01/16 21:08:48;;;;;;;8.00;3.38;;;16.70;63.60;;;;;;4954299;28;20589;-55
2021/01/16 21:11:16;;;;;;;7.53;3.45;;;16.70;63.50;;;;;;4954512;29;20076;-55
2021/01/16 21:13:43;;;;;;;7.93;3.30;;;16.70;63.50;;;;;;4954107;29;20383;-54
2021/01/16 21:16:09;;;;;;;9.35;3.28;;;16.70;63.50;;;;;;4954160;29;20023;-56
2021/01/16 21:18:36;;;;;;;6.60;3.15;;;16.70;63.50;;;;;;4954034;29;20039;-55
2021/01/16 21:21:03;;;;;;;9.00;3.55;;;16.70;63.50;;;;;;4953807;28;20027;-55
2021/01/16 21:23:29;;;;;;;6.72;3.15;;;16.70;63.40;;;;;;4953717;28;20085;-55
2021/01/16 21:25:56;;;;;;;6.40;3.03;;;16.70;63.40;;;;;;4953716;28;20049;-55
2021/01/16 21:28:22;;;;;;;9.00;3.50;;;16.70;63.40;;;;;;4954124;28;20463;-55
2021/01/16 21:30:51;;;;;;;9.77;3.53;;;16.80;63.40;;;;;;4953503;29;20399;-54
2021/01/16 21:33:17;;;;;;;9.70;3.33;;;16.80;63.40;;;;;;4954652;28;20031;-55
2021/01/16 21:35:44;;;;;;;6.68;2.88;;;16.80;63.40;;;;;;4953887;29;20418;-55
2021/01/16 21:38:10;;;;;;;8.63;3.42;;;16.80;63.40;;;;;;4953770;28;20390;-55
2021/01/16 21:40:37;;;;;;;7.15;3.08;;;16.80;63.40;;;;;;4953464;28;20062;-54
2021/01/16 21:43:09;;;;;;;8.73;3.20;;;16.80;63.30;;;;;;4953658;28;20532;-55
2021/01/16 21:45:37;;;;;;;7.60;3.60;;;16.80;63.30;;;;;;4953751;28;20031;-55
2021/01/16 21:48:06;;;;;;;9.10;3.80;;;16.80;63.30;;;;;;4953651;29;20035;-55
2021/01/16 21:50:33;;;;;;;9.20;3.88;;;16.80;63.30;;;;;;4953624;28;20031;-55
2021/01/16 21:53:00;;;;;;;6.90;3.58;;;16.80;63.20;;;;;;4953502;28;20023;-55
2021/01/16 21:55:26;;;;;;;7.80;3.42;;;16.90;63.20;;;;;;4953550;29;20023;-55
2021/01/16 21:57:53;;;;;;;7.63;3.78;;;16.90;63.20;;;;;;4953775;28;20027;-55
2021/01/16 22:00:24;;;;;;;8.18;3.70;;;16.90;63.10;;;;;;4953356;28;20036;-55
2021/01/16 22:02:59;;;;;;;7.20;3.40;;;16.90;63.10;;;;;;4954236;29;20032;-55
2021/01/16 22:05:26;;;;;;;8.45;3.80;;;16.90;63.00;;;;;;4953431;28;20038;-55
2021/01/16 22:07:55;;;;;;;6.70;3.30;;;16.90;63.00;;;;;;4953878;29;20031;-55
2021/01/16 22:10:22;;;;;;;9.75;3.95;;;16.90;63.00;;;;;;4953423;28;20031;-55
2021/01/16 22:12:48;;;;;;;9.85;3.47;;;16.90;63.00;;;;;;4953880;28;20062;-55
2021/01/16 22:15:15;;;;;;;8.13;3.50;;;16.90;62.90;;;;;;4953268;29;20027;-55
2021/01/16 22:17:49;;;;;;;8.45;3.67;;;16.90;62.90;;;;;;4953233;28;20034;-55
2021/01/16 22:20:18;;;;;;;7.43;3.53;;;16.90;62.90;;;;;;4953207;28;20042;-55
2021/01/16 22:22:45;;;;;;;7.18;3.10;;;16.90;62.90;;;;;;4952962;28;20382;-55
2021/01/16 22:25:12;;;;;;;6.70;3.67;;;16.90;62.80;;;;;;4951822;29;20485;-55
2021/01/16 22:27:43;;;;;;;8.43;3.35;;;16.90;62.80;;;;;;4953231;28;20027;-55
2021/01/16 22:30:15;;;;;;;7.93;3.50;;;17.00;63.20;;;;;;4952888;28;20085;-55
2021/01/16 22:32:48;;;;;;;8.30;3.67;;;16.90;62.80;;;;;;4953157;29;20102;-55
2021/01/16 22:35:16;;;;;;;9.43;4.13;;;16.90;62.80;;;;;;4953322;28;20118;-54
2021/01/16 22:37:42;;;;;;;6.25;3.78;;;16.90;62.70;;;;;;4953029;28;20027;-54
2021/01/16 22:40:12;;;;;;;9.15;3.65;;;16.90;62.80;;;;;;4952643;28;20043;-55
2021/01/16 22:42:40;;;;;;;8.50;4.00;;;16.90;62.70;;;;;;4952841;28;20032;-55
2021/01/16 22:45:08;;;;;;;9.90;3.90;;;16.90;62.80;;;;;;4952935;29;20059;-54
2021/01/16 22:47:34;;;;;;;6.72;3.58;;;16.90;62.70;;;;;;4952574;28;20073;-55
2021/01/16 22:50:01;;;;;;;7.45;3.85;;;16.90;62.70;;;;;;4952883;29;20117;-55
2021/01/16 22:52:27;;;;;;;8.77;3.78;;;16.90;62.70;;;;;;4952800;28;20028;-55
2021/01/16 22:54:54;;;;;;;6.63;3.55;;;16.90;62.70;;;;;;4952815;28;20028;-55
2021/01/16 22:57:20;;;;;;;8.40;4.03;;;16.90;62.70;;;;;;4951766;28;20027;-55
2021/01/16 22:59:47;;;;;;;7.18;3.65;;;16.90;62.70;;;;;;4952713;28;20035;-54
2021/01/16 23:02:13;;;;;;;8.30;3.80;;;16.90;62.70;;;;;;4952412;28;20082;-54
2021/01/16 23:04:40;;;;;;;9.32;3.55;;;16.90;62.70;;;;;;4952346;28;20080;-55
2021/01/16 23:07:06;;;;;;;5.13;3.28;;;16.90;62.70;;;;;;4952674;29;20463;-55
2021/01/16 23:09:33;;;;;;;7.57;3.78;;;16.90;62.60;;;;;;4952590;28;20129;-54
2021/01/16 23:11:59;;;;;;;6.45;3.80;;;16.90;62.70;;;;;;4952898;29;20031;-54
2021/01/16 23:14:26;;;;;;;6.70;3.45;;;16.90;62.60;;;;;;4952582;29;20498;-54
2021/01/16 23:16:54;;;;;;;6.18;3.40;;;16.90;62.60;;;;;;4952523;29;20102;-55
2021/01/16 23:19:20;;;;;;;7.38;3.70;;;16.80;62.50;;;;;;4952362;28;20039;-55
2021/01/16 23:21:47;;;;;;;7.50;3.55;;;16.80;62.50;;;;;;4952506;28;20034;-54
2021/01/16 23:24:14;;;;;;;8.27;3.58;;;16.80;62.60;;;;;;4952468;29;20030;-55
2021/01/16 23:26:41;;;;;;;8.98;3.63;;;16.80;62.60;;;;;;4954142;28;20029;-55
2021/01/16 23:29:07;;;;;;;5.82;3.45;;;16.80;62.60;;;;;;4955790;28;20031;-55
2021/01/16 23:31:34;;;;;;;9.43;3.45;;;16.80;62.60;;;;;;4955474;29;20035;-54
2021/01/16 23:34:01;;;;;;;7.90;3.53;;;16.80;62.60;;;;;;4955921;29;20031;-55
2021/01/16 23:36:27;;;;;;;5.65;3.40;;;16.80;62.60;;;;;;4955636;29;20032;-54
2021/01/16 23:38:54;;;;;;;8.45;3.90;;;16.80;62.70;;;;;;4955379;28;20386;-55
2021/01/16 23:41:20;;;;;;;7.28;4.07;;;16.80;62.60;;;;;;4955505;29;20035;-55
2021/01/16 23:43:47;;;;;;;8.95;3.65;;;16.80;62.60;;;;;;4955535;29;20097;-55
2021/01/16 23:46:13;;;;;;;9.35;3.40;;;16.80;62.60;;;;;;4955484;29;20085;-55
2021/01/16 23:48:40;;;;;;;6.95;3.42;;;16.80;62.70;;;;;;4955824;28;20023;-54
2021/01/16 23:51:07;;;;;;;5.47;3.58;;;16.80;62.60;;;;;;4955174;28;20475;-55
2021/01/16 23:53:33;;;;;;;7.07;4.05;;;16.80;62.60;;;;;;4955304;28;20027;-55
2021/01/16 23:56:00;;;;;;;5.85;3.55;;;16.80;62.70;;;;;;4955518;28;20032;-54
2021/01/16 23:58:26;;;;;;;7.93;3.60;;;16.80;62.70;;;;;;4955290;28;20536;-54
